Time;durP1;ratioP1;P1;durP2;ratioP2;P2;SDS_P1;SDS_P2;PMS_P1;PMS_P2;Temp;Humidity;BMP_temperature;BMP_pressure;BME280_temperature;BME280_humidity;BME280_pressure;Samples;Min_cycle;Max_cycle;Signal;HPM_P1;HPM_P2
2022/09/25 00:02:00;;;;;;;;;;;;;;;;;;5075432;28;19920;-78
2022/09/25 00:04:46;;;;;;;;;;;;;;;;;;5087388;28;20232;-78
2022/09/25 00:07:33;;;;;;;;;;;;;;;;;;5081583;28;19923;-82
2022/09/25 00:10:19;;;;;;;;;;;;;;;;;;5075943;28;19912;-77
2022/09/25 00:13:06;;;;;;;;;;;;;;;;;;5091183;28;19914;-77
2022/09/25 00:15:52;;;;;;;;;;;;;;;;;;5064588;28;20661;-79
2022/09/25 00:21:44;;;;;;;;;;;;;;;;;;5087357;28;19911;-78
2022/09/25 00:24:31;;;;;;;;;;;;;;;;;;5079470;28;19908;-77
2022/09/25 00:27:18;;;;;;;;;;;;;;;;;;5083515;28;20299;-78
2022/09/25 00:30:04;;;;;;;;;;;;;;;;;;5088236;28;19918;-78
2022/09/25 00:32:51;;;;;;;;;;;;;;;;;;5075513;28;19914;-78
2022/09/25 00:35:37;;;;;;;;;;;;;;;;;;5082332;28;19912;-78
2022/09/25 00:38:24;;;;;;;;;;;;;;;;;;5080850;28;19914;-78
2022/09/25 00:41:10;;;;;;;;;;;;;;;;;;5071246;28;19908;-78
2022/09/25 00:43:57;;;;;;;;;;;;;;;;;;5084792;28;19916;-77
2022/09/25 00:46:43;;;;;;;;;;;;;;;;;;5089786;28;19927;-78
2022/09/25 00:49:30;;;;;;;;;;;;;;;;;;5090765;28;19942;-78
2022/09/25 00:52:16;;;;;;;;;;;;;;;;;;5095373;28;19912;-78
2022/09/25 00:55:03;;;;;;;;;;;;;;;;;;5083776;28;19920;-77
2022/09/25 00:57:50;;;;;;;;;;;;;;;;;;5092772;28;19935;-78
2022/09/25 01:00:36;;;;;;;;;;;;;;;;;;5088737;28;20296;-77
2022/09/25 01:03:23;;;;;;;;;;;;;;;;;;5088378;28;19916;-78
2022/09/25 01:06:10;;;;;;;;;;;;;;;;;;5075652;28;19935;-78
2022/09/25 01:08:57;;;;;;;;;;;;;;;;;;5085254;28;19912;-78
2022/09/25 01:11:44;;;;;;;;;;;;;;;;;;5088402;28;20236;-78
2022/09/25 01:14:32;;;;;;;;;;;;;;;;;;5082285;28;20319;-78
2022/09/25 01:17:19;;;;;;;;;;;;;;;;;;5071977;28;19919;-78
2022/09/25 01:20:05;;;;;;;;;;;;;;;;;;5087435;28;19935;-78
2022/09/25 01:22:52;;;;;;;;;;;;;;;;;;5083527;28;19912;-78
2022/09/25 01:25:38;;;;;;;;;;;;;;;;;;5072309;28;19916;-78
2022/09/25 01:28:25;;;;;;;;;;;;;;;;;;5076182;28;19923;-79
2022/09/25 01:31:11;;;;;;;;;;;;;;;;;;5084632;28;19931;-78
2022/09/25 01:33:58;;;;;;;;;;;;;;;;;;5079622;28;19930;-79
2022/09/25 01:36:44;;;;;;;;;;;;;;;;;;5078895;28;19908;-79
2022/09/25 01:39:31;;;;;;;;;;;;;;;;;;5091275;28;19916;-77
2022/09/25 01:42:18;;;;;;;;;;;;;;;;;;5068526;28;20352;-78
2022/09/25 01:45:04;;;;;;;;;;;;;;;;;;5080730;28;20473;-76
2022/09/25 01:47:51;;;;;;;;;;;;;;;;;;5094083;28;19931;-77
2022/09/25 01:50:38;;;;;;;;;;;;;;;;;;5086004;28;19920;-77
2022/09/25 01:53:24;;;;;;;;;;;;;;;;;;5084763;28;19912;-77
2022/09/25 01:56:11;;;;;;;;;;;;;;;;;;5084774;28;20017;-78
2022/09/25 01:58:57;;;;;;;;;;;;;;;;;;5085214;28;19909;-77
2022/09/25 02:01:44;;;;;;;;;;;;;;;;;;5078692;28;19931;-77
2022/09/25 02:04:30;;;;;;;;;;;;;;;;;;5082571;28;19931;-77
2022/09/25 02:07:17;;;;;;;;;;;;;;;;;;5079434;28;19916;-77
2022/09/25 02:10:03;;;;;;;;;;;;;;;;;;5079683;28;19918;-77
2022/09/25 02:12:50;;;;;;;;;;;;;;;;;;5080427;28;19924;-78
2022/09/25 02:15:36;;;;;;;;;;;;;;;;;;5098053;28;19923;-77
2022/09/25 02:21:28;;;;;;;;;;;;;;;;;;5076662;28;19912;-79
2022/09/25 02:24:14;;;;;;;;;;;;;;;;;;5079093;28;19913;-78
2022/09/25 02:27:01;;;;;;;;;;;;;;;;;;5071942;28;20301;-78
2022/09/25 02:29:48;;;;;;;;;;;;;;;;;;5088397;28;19944;-78
2022/09/25 02:32:34;;;;;;;;;;;;;;;;;;5076312;28;19908;-77
2022/09/25 02:35:21;;;;;;;;;;;;;;;;;;5072616;28;19934;-76
2022/09/25 02:38:08;;;;;;;;;;;;;;;;;;5079267;28;19935;-76
2022/09/25 02:40:54;;;;;;;;;;;;;;;;;;5082970;28;19912;-77
2022/09/25 02:43:41;;;;;;;;;;;;;;;;;;5096279;28;19934;-78
2022/09/25 02:46:27;;;;;;;;;;;;;;;;;;5091461;28;19931;-77
2022/09/25 02:49:13;;;;;;;;;;;;;;;;;;5077318;28;19916;-78
2022/09/25 02:52:00;;;;;;;;;;;;;;;;;;5075709;28;19913;-78
2022/09/25 02:54:48;;;;;;;;;;;;;;;;;;5083062;28;19912;-77
2022/09/25 02:57:35;;;;;;;;;;;;;;;;;;5093724;28;19912;-78
2022/09/25 03:00:22;;;;;;;;;;;;;;;;;;5078463;28;20382;-78
2022/09/25 03:03:08;;;;;;;;;;;;;;;;;;5081449;28;19923;-78
2022/09/25 03:05:55;;;;;;;;;;;;;;;;;;5070316;28;19916;-78
2022/09/25 03:08:42;;;;;;;;;;;;;;;;;;5087285;28;19992;-78
2022/09/25 03:11:28;;;;;;;;;;;;;;;;;;5090257;28;19912;-79
2022/09/25 03:14:14;;;;;;;;;;;;;;;;;;5081875;28;20446;-78
2022/09/25 03:17:02;;;;;;;;;;;;;;;;;;5084720;28;19912;-77
2022/09/25 03:19:48;;;;;;;;;;;;;;;;;;5087987;28;19915;-77
2022/09/25 03:22:36;;;;;;;;;;;;;;;;;;5069864;28;19916;-77
2022/09/25 03:25:22;;;;;;;;;;;;;;;;;;5086461;28;20025;-78
2022/09/25 03:28:12;;;;;;;;;;;;;;;;;;5083555;28;19924;-78
2022/09/25 03:30:58;;;;;;;;;;;;;;;;;;5063069;28;20300;-78
2022/09/25 03:33:45;;;;;;;;;;;;;;;;;;5090827;28;19916;-78
2022/09/25 03:36:34;;;;;;;;;;;;;;;;;;5088071;28;20005;-78
2022/09/25 03:39:21;;;;;;;;;;;;;;;;;;5089883;28;19924;-77
2022/09/25 03:42:07;;;;;;;;;;;;;;;;;;5085856;28;19935;-78
2022/09/25 03:44:53;;;;;;;;;;;;;;;;;;5084111;28;19938;-76
2022/09/25 03:47:40;;;;;;;;;;;;;;;;;;5091570;28;19920;-78
2022/09/25 03:50:26;;;;;;;;;;;;;;;;;;5085465;28;19908;-78
2022/09/25 03:53:13;;;;;;;;;;;;;;;;;;5097822;28;19912;-78
2022/09/25 03:55:59;;;;;;;;;;;;;;;;;;5076661;28;19915;-78
2022/09/25 03:58:46;;;;;;;;;;;;;;;;;;5074211;28;19916;-78
2022/09/25 04:01:33;;;;;;;;;;;;;;;;;;5087069;28;19912;-77
2022/09/25 04:04:19;;;;;;;;;;;;;;;;;;5083298;28;19935;-76
2022/09/25 04:07:07;;;;;;;;;;;;;;;;;;5100248;28;20321;-77
2022/09/25 04:09:53;;;;;;;;;;;;;;;;;;5068667;28;19921;-77
2022/09/25 04:12:42;;;;;;;;;;;;;;;;;;5075754;28;19920;-77
2022/09/25 04:15:29;;;;;;;;;;;;;;;;;;5085075;28;19916;-77
2022/09/25 04:18:15;;;;;;;;;;;;;;;;;;5061041;28;19916;-78
2022/09/25 04:21:03;;;;;;;;;;;;;;;;;;5085046;28;19908;-78
2022/09/25 04:26:54;;;;;;;;;;;;;;;;;;5083538;28;19935;-77
2022/09/25 04:29:41;;;;;;;;;;;;;;;;;;5083776;28;19920;-77
2022/09/25 04:35:46;;;;;;;;;;;;;;;;;;5063602;28;19935;-78
2022/09/25 04:38:33;;;;;;;;;;;;;;;;;;5078773;28;19912;-78
2022/09/25 04:41:20;;;;;;;;;;;;;;;;;;5077259;28;19915;-78
2022/09/25 04:44:06;;;;;;;;;;;;;;;;;;5068998;28;20244;-78
2022/09/25 04:46:52;;;;;;;;;;;;;;;;;;5081433;28;19920;-78
2022/09/25 04:49:39;;;;;;;;;;;;;;;;;;5087588;28;19915;-78
2022/09/25 04:52:27;;;;;;;;;;;;;;;;;;5103543;28;19916;-78
2022/09/25 04:55:13;;;;;;;;;;;;;;;;;;5086896;28;19908;-78
2022/09/25 04:58:00;;;;;;;;;;;;;;;;;;5091233;28;19911;-78
2022/09/25 05:00:46;;;;;;;;;;;;;;;;;;5085442;28;19912;-78
2022/09/25 05:03:33;;;;;;;;;;;;;;;;;;5077509;28;20367;-77
2022/09/25 05:06:19;;;;;;;;;;;;;;;;;;5092138;28;19927;-78
2022/09/25 05:09:06;;;;;;;;;;;;;;;;;;5082827;28;19919;-78
2022/09/25 05:11:52;;;;;;;;;;;;;;;;;;5077886;28;19999;-76
2022/09/25 05:14:41;;;;;;;;;;;;;;;;;;5074519;28;19915;-78
2022/09/25 05:17:27;;;;;;;;;;;;;;;;;;5076431;28;19951;-81
2022/09/25 05:20:15;;;;;;;;;;;;;;;;;;5097507;28;19915;-80
2022/09/25 05:23:03;;;;;;;;;;;;;;;;;;5077442;28;20239;-79
2022/09/25 05:25:49;;;;;;;;;;;;;;;;;;5088027;28;19919;-81
2022/09/25 05:28:36;;;;;;;;;;;;;;;;;;5101501;28;19912;-81
2022/09/25 05:31:22;;;;;;;;;;;;;;;;;;5087774;28;19916;-81
2022/09/25 05:34:09;;;;;;;;;;;;;;;;;;5057494;28;19912;-81
2022/09/25 05:36:55;;;;;;;;;;;;;;;;;;5095167;28;19911;-81
2022/09/25 05:39:42;;;;;;;;;;;;;;;;;;5074901;28;19908;-81
2022/09/25 05:42:28;;;;;;;;;;;;;;;;;;5099659;28;19945;-81
2022/09/25 05:45:15;;;;;;;;;;;;;;;;;;5067851;28;19924;-81
2022/09/25 05:48:01;;;;;;;;;;;;;;;;;;5085489;28;19920;-82
2022/09/25 05:50:48;;;;;;;;;;;;;;;;;;5089043;28;19911;-80
2022/09/25 05:53:35;;;;;;;;;;;;;;;;;;5076052;28;20256;-80
2022/09/25 05:56:24;;;;;;;;;;;;;;;;;;5079416;28;19908;-81
2022/09/25 05:59:11;;;;;;;;;;;;;;;;;;5073082;28;19920;-80
2022/09/25 06:01:58;;;;;;;;;;;;;;;;;;5076445;28;19922;-80
2022/09/25 06:04:44;;;;;;;;;;;;;;;;;;5083111;28;19920;-81
2022/09/25 06:07:30;;;;;;;;;;;;;;;;;;5080419;28;20363;-80
2022/09/25 06:10:17;;;;;;;;;;;;;;;;;;5071815;28;19908;-81
2022/09/25 06:13:04;;;;;;;;;;;;;;;;;;5072657;28;19946;-80
2022/09/25 06:15:51;;;;;;;;;;;;;;;;;;5096505;28;19912;-81
2022/09/25 06:18:37;;;;;;;;;;;;;;;;;;5096641;28;20068;-80
2022/09/25 06:21:24;;;;;;;;;;;;;;;;;;5084403;28;19916;-81
2022/09/25 06:24:11;;;;;;;;;;;;;;;;;;5072415;28;19943;-81
2022/09/25 06:26:57;;;;;;;;;;;;;;;;;;5073503;28;19927;-82
2022/09/25 06:29:44;;;;;;;;;;;;;;;;;;5082385;28;19912;-82
2022/09/25 06:32:30;;;;;;;;;;;;;;;;;;5090959;28;19936;-80
2022/09/25 06:35:17;;;;;;;;;;;;;;;;;;5080724;28;19919;-81
2022/09/25 06:38:04;;;;;;;;;;;;;;;;;;5080376;28;19915;-81
2022/09/25 06:40:50;;;;;;;;;;;;;;;;;;5084038;28;20426;-80
2022/09/25 06:43:37;;;;;;;;;;;;;;;;;;5089198;28;19917;-81
2022/09/25 06:46:23;;;;;;;;;;;;;;;;;;5086327;28;19916;-81
2022/09/25 06:49:09;;;;;;;;;;;;;;;;;;5080580;28;19920;-81
2022/09/25 06:51:56;;;;;;;;;;;;;;;;;;5082384;28;19947;-81
2022/09/25 06:54:43;;;;;;;;;;;;;;;;;;5082283;28;19915;-82
2022/09/25 06:57:31;;;;;;;;;;;;;;;;;;5074488;28;19912;-81
2022/09/25 07:00:17;;;;;;;;;;;;;;;;;;5074084;28;20303;-80
2022/09/25 07:06:09;;;;;;;;;;;;;;;;;;5083716;28;20216;-81
2022/09/25 07:08:56;;;;;;;;;;;;;;;;;;5098693;28;19912;-81
2022/09/25 07:11:45;;;;;;;;;;;;;;;;;;5093733;28;20451;-81
2022/09/25 07:14:32;;;;;;;;;;;;;;;;;;5077814;28;19912;-78
2022/09/25 07:17:19;;;;;;;;;;;;;;;;;;5079570;28;19926;-76
2022/09/25 07:20:07;;;;;;;;;;;;;;;;;;5078487;28;19912;-78
2022/09/25 07:22:53;;;;;;;;;;;;;;;;;;5084978;28;19923;-76
2022/09/25 07:25:40;;;;;;;;;;;;;;;;;;5078776;28;19912;-78
2022/09/25 07:28:26;;;;;;;;;;;;;;;;;;5080024;28;20276;-78
2022/09/25 07:31:13;;;;;;;;;;;;;;;;;;5074265;28;19916;-76
2022/09/25 07:34:01;;;;;;;;;;;;;;;;;;5088763;28;20371;-76
2022/09/25 07:36:51;;;;;;;;;;;;;;;;;;5093503;28;19919;-75
2022/09/25 07:39:44;;;;;;;;;;;;;;;;;;5083793;28;20547;-78
2022/09/25 07:42:30;;;;;;;;;;;;;;;;;;5075545;28;20307;-74
2022/09/25 07:45:17;;;;;;;;;;;;;;;;;;5082675;28;19999;-77
2022/09/25 07:48:05;;;;;;;;;;;;;;;;;;5080461;28;19931;-77
2022/09/25 07:50:51;;;;;;;;;;;;;;;;;;5090816;28;20283;-76
2022/09/25 07:53:38;;;;;;;;;;;;;;;;;;5087206;28;19917;-75
2022/09/25 07:56:24;;;;;;;;;;;;;;;;;;5074182;28;20063;-77
2022/09/25 07:59:11;;;;;;;;;;;;;;;;;;5086528;28;19912;-75
2022/09/25 08:01:57;;;;;;;;;;;;;;;;;;5077485;28;19917;-75
2022/09/25 08:04:44;;;;;;;;;;;;;;;;;;5068099;28;19912;-76
2022/09/25 08:07:30;;;;;;;;;;;;;;;;;;5080593;28;19928;-76
2022/09/25 08:10:17;;;;;;;;;;;;;;;;;;5070145;28;19922;-74
2022/09/25 08:13:03;;;;;;;;;;;;;;;;;;5080408;28;19912;-75
2022/09/25 08:15:50;;;;;;;;;;;;;;;;;;5077443;28;19923;-76
2022/09/25 08:18:37;;;;;;;;;;;;;;;;;;5066471;28;20291;-77
2022/09/25 08:21:24;;;;;;;;;;;;;;;;;;5084879;28;19914;-76
2022/09/25 08:24:10;;;;;;;;;;;;;;;;;;5061448;28;19916;-77
2022/09/25 08:26:57;;;;;;;;;;;;;;;;;;5068281;28;20414;-75
2022/09/25 08:29:43;;;;;;;;;;;;;;;;;;5058934;28;19912;-75
2022/09/25 08:32:30;;;;;;;;;;;;;;;;;;5066554;28;19936;-76
2022/09/25 08:35:16;;;;;;;;;;;;;;;;;;5068099;28;19908;-76
2022/09/25 08:38:03;;;;;;;;;;;;;;;;;;5062164;28;20390;-75
2022/09/25 08:40:50;;;;;;;;;;;;;;;;;;5073821;28;19920;-76
2022/09/25 08:43:36;;;;;;;;;;;;;;;;;;5055109;28;20374;-76
2022/09/25 08:49:28;;;;;;;;;;;;;;;;;;5068816;28;19916;-76
2022/09/25 08:52:15;;;;;;;;;;;;;;;;;;5071572;28;20360;-75
2022/09/25 08:55:01;;;;;;;;;;;;;;;;;;5058864;28;19912;-75
2022/09/25 08:57:49;;;;;;;;;;;;;;;;;;5059640;28;20485;-74
2022/09/25 09:00:40;;;;;;;;;;;;;;;;;;5078692;28;20272;-78
2022/09/25 09:03:29;;;;;;;;;;;;;;;;;;5061884;28;19919;-76
2022/09/25 09:06:15;;;;;;;;;;;;;;;;;;5052437;28;19917;-76
2022/09/25 09:09:03;;;;;;;;;;;;;;;;;;5065966;28;19924;-76
2022/09/25 09:11:51;;;;;;;;;;;;;;;;;;5063645;28;19939;-77
2022/09/25 09:14:37;;;;;;;;;;;;;;;;;;5060097;28;19929;-76
2022/09/25 09:17:24;;;;;;;;;;;;;;;;;;5060619;28;19912;-75
2022/09/25 09:20:10;;;;;;;;;;;;;;;;;;5066727;28;19923;-76
2022/09/25 09:22:57;;;;;;;;;;;;;;;;;;5065039;28;20402;-76
2022/09/25 09:25:43;;;;;;;;;;;;;;;;;;5060050;28;19919;-77
2022/09/25 09:28:30;;;;;;;;;;;;;;;;;;5073668;28;19928;-76
2022/09/25 09:31:17;;;;;;;;;;;;;;;;;;5090148;28;19915;-76
2022/09/25 09:34:03;;;;;;;;;;;;;;;;;;5082713;28;19909;-76
2022/09/25 09:36:50;;;;;;;;;;;;;;;;;;5075292;28;19916;-76
2022/09/25 09:39:36;;;;;;;;;;;;;;;;;;5094797;28;19908;-76
2022/09/25 09:42:24;;;;;;;;;;;;;;;;;;5081464;28;19923;-75
2022/09/25 09:45:11;;;;;;;;;;;;;;;;;;5074195;28;20336;-75
2022/09/25 09:47:58;;;;;;;;;;;;;;;;;;5077611;28;19920;-76
2022/09/25 09:50:44;;;;;;;;;;;;;;;;;;5086839;28;19918;-76
2022/09/25 09:53:31;;;;;;;;;;;;;;;;;;5093414;28;19927;-76
2022/09/25 09:56:17;;;;;;;;;;;;;;;;;;5072954;28;20521;-76
2022/09/25 09:59:04;;;;;;;;;;;;;;;;;;5094524;28;19920;-76
2022/09/25 10:01:50;;;;;;;;;;;;;;;;;;5074318;28;19913;-76
2022/09/25 10:04:36;;;;;;;;;;;;;;;;;;5088481;28;19915;-76
2022/09/25 10:07:23;;;;;;;;;;;;;;;;;;5089074;28;19920;-77
2022/09/25 10:10:09;;;;;;;;;;;;;;;;;;5080849;28;19912;-75
2022/09/25 10:12:59;;;;;;;;;;;;;;;;;;5092598;28;19916;-76
2022/09/25 10:15:47;;;;;;;;;;;;;;;;;;5114624;28;19923;-74
2022/09/25 10:18:33;;;;;;;;;;;;;;;;;;5080098;28;19923;-75
2022/09/25 10:21:20;;;;;;;;;;;;;;;;;;5091065;28;20347;-77
2022/09/25 10:24:07;;;;;;;;;;;;;;;;;;5077080;28;20240;-77
2022/09/25 10:26:53;;;;;;;;;;;;;;;;;;5083426;28;19920;-77
2022/09/25 10:29:39;;;;;;;;;;;;;;;;;;5079077;28;19919;-77
2022/09/25 10:32:26;;;;;;;;;;;;;;;;;;5077576;28;19918;-74
2022/09/25 10:35:12;;;;;;;;;;;;;;;;;;5057002;28;19923;-76
2022/09/25 10:37:59;;;;;;;;;;;;;;;;;;5077866;28;19938;-76
2022/09/25 10:40:48;;;;;;;;;;;;;;;;;;5076844;28;19916;-77
2022/09/25 10:43:34;;;;;;;;;;;;;;;;;;5074631;28;21549;-77
2022/09/25 10:50:09;;;;;;;;;;;;;;;;;;5075920;28;19916;-75
2022/09/25 10:52:32;;;;;;;;;;;;;;;;;;5075671;28;20327;-76
2022/09/25 10:55:19;;;;;;;;;;;;;;;;;;5074834;28;19914;-76
2022/09/25 10:58:06;;;;;;;;;;;;;;;;;;5064486;28;19927;-76
2022/09/25 11:00:52;;;;;;;;;;;;;;;;;;5083568;28;20421;-76
2022/09/25 11:03:39;;;;;;;;;;;;;;;;;;5089773;28;19912;-76
2022/09/25 11:06:26;;;;;;;;;;;;;;;;;;5097346;27;19912;-76
2022/09/25 11:09:12;;;;;;;;;;;;;;;;;;5077774;28;19931;-76
2022/09/25 11:11:59;;;;;;;;;;;;;;;;;;5080598;28;19912;-76
2022/09/25 11:14:50;;;;;;;;;;;;;;;;;;5069833;28;19922;-75
2022/09/25 11:17:36;;;;;;;;;;;;;;;;;;5073807;28;20295;-76
2022/09/25 11:20:29;;;;;;;;;;;;;;;;;;5076721;28;19922;-76
2022/09/25 11:23:16;;;;;;;;;;;;;;;;;;5081890;28;20380;-76
2022/09/25 11:26:04;;;;;;;;;;;;;;;;;;5083528;28;19939;-76
2022/09/25 11:28:51;;;;;;;;;;;;;;;;;;5080360;28;19939;-77
2022/09/25 11:31:37;;;;;;;;;;;;;;;;;;5093414;28;20009;-76
2022/09/25 11:34:24;;;;;;;;;;;;;;;;;;5075503;28;19920;-76
2022/09/25 11:37:10;;;;;;;;;;;;;;;;;;5080959;28;19934;-76
2022/09/25 11:43:02;;;;;;;;;;;;;;;;;;5086557;28;19919;-75
2022/09/25 11:45:48;;;;;;;;;;;;;;;;;;5088313;28;20268;-76
2022/09/25 11:48:36;;;;;;;;;;;;;;;;;;5086768;28;19946;-76
2022/09/25 11:51:23;;;;;;;;;;;;;;;;;;5084187;28;19909;-76
2022/09/25 11:54:09;;;;;;;;;;;;;;;;;;5098339;28;20498;-76
2022/09/25 11:56:56;;;;;;;;;;;;;;;;;;5076528;28;19919;-77
2022/09/25 11:59:42;;;;;;;;;;;;;;;;;;5078399;28;19917;-75
2022/09/25 12:02:29;;;;;;;;;;;;;;;;;;5085984;28;20284;-76
2022/09/25 12:05:15;;;;;;;;;;;;;;;;;;5082513;28;20395;-76
2022/09/25 12:08:02;;;;;;;;;;;;;;;;;;5078711;28;19942;-76
2022/09/25 12:10:48;;;;;;;;;;;;;;;;;;5085124;28;19908;-77
2022/09/25 12:13:37;;;;;;;;;;;;;;;;;;5086778;28;19936;-77
2022/09/25 12:16:24;;;;;;;;;;;;;;;;;;5094034;28;19915;-77
2022/09/25 12:19:10;;;;;;;;;;;;;;;;;;5088664;28;19920;-76
2022/09/25 12:22:00;;;;;;;;;;;;;;;;;;5075984;28;19919;-77
2022/09/25 12:24:46;;;;;;;;;;;;;;;;;;5080703;28;19923;-77
2022/09/25 12:27:33;;;;;;;;;;;;;;;;;;5087578;28;19928;-78
2022/09/25 12:30:20;;;;;;;;;;;;;;;;;;5083631;28;20300;-75
2022/09/25 12:33:06;;;;;;;;;;;;;;;;;;5082185;28;19912;-76
2022/09/25 12:35:53;;;;;;;;;;;;;;;;;;5079752;28;19918;-77
2022/09/25 12:38:40;;;;;;;;;;;;;;;;;;5088608;28;19908;-76
2022/09/25 12:41:28;;;;;;;;;;;;;;;;;;5087166;28;19920;-76
2022/09/25 12:44:15;;;;;;;;;;;;;;;;;;5076854;28;19947;-76
2022/09/25 12:47:02;;;;;;;;;;;;;;;;;;5092926;28;19934;-76
2022/09/25 12:49:48;;;;;;;;;;;;;;;;;;5083247;28;19995;-76
2022/09/25 12:52:35;;;;;;;;;;;;;;;;;;5075656;28;19915;-76
2022/09/25 12:55:21;;;;;;;;;;;;;;;;;;5083270;28;19927;-78
2022/09/25 12:58:08;;;;;;;;;;;;;;;;;;5074465;28;19919;-76
2022/09/25 13:00:54;;;;;;;;;;;;;;;;;;5080722;28;19912;-76
2022/09/25 13:03:42;;;;;;;;;;;;;;;;;;5074992;28;19931;-76
2022/09/25 13:06:29;;;;;;;;;;;;;;;;;;5084228;28;19919;-77
2022/09/25 13:09:16;;;;;;;;;;;;;;;;;;5077216;28;19931;-76
2022/09/25 13:12:02;;;;;;;;;;;;;;;;;;5073133;28;20257;-76
2022/09/25 13:14:51;;;;;;;;;;;;;;;;;;5088412;28;19914;-77
2022/09/25 13:17:37;;;;;;;;;;;;;;;;;;5081082;28;19923;-75
2022/09/25 13:20:24;;;;;;;;;;;;;;;;;;5070175;28;19954;-77
2022/09/25 13:23:12;;;;;;;;;;;;;;;;;;5079942;28;19923;-76
2022/09/25 13:25:59;;;;;;;;;;;;;;;;;;5070337;28;19920;-76
2022/09/25 13:28:46;;;;;;;;;;;;;;;;;;5087748;28;19919;-76
2022/09/25 13:31:33;;;;;;;;;;;;;;;;;;5090285;28;19912;-76
2022/09/25 13:34:19;;;;;;;;;;;;;;;;;;5077981;28;19958;-76
2022/09/25 13:37:06;;;;;;;;;;;;;;;;;;5081871;28;19922;-76
2022/09/25 13:42:58;;;;;;;;;;;;;;;;;;5078256;28;19916;-77
2022/09/25 13:45:45;;;;;;;;;;;;;;;;;;5077899;28;19923;-76
2022/09/25 13:48:31;;;;;;;;;;;;;;;;;;5081097;28;19924;-77
2022/09/25 13:51:18;;;;;;;;;;;;;;;;;;5085060;28;19926;-76
2022/09/25 13:54:04;;;;;;;;;;;;;;;;;;5081265;28;20002;-75
2022/09/25 13:56:53;;;;;;;;;;;;;;;;;;5074238;28;19942;-77
2022/09/25 13:59:40;;;;;;;;;;;;;;;;;;5087396;28;20387;-75
2022/09/25 14:02:27;;;;;;;;;;;;;;;;;;5088063;28;19920;-76
2022/09/25 14:05:14;;;;;;;;;;;;;;;;;;5089078;28;19923;-77
2022/09/25 14:08:00;;;;;;;;;;;;;;;;;;5086051;28;19919;-76
2022/09/25 14:10:47;;;;;;;;;;;;;;;;;;5078278;28;19912;-75
2022/09/25 14:13:34;;;;;;;;;;;;;;;;;;5074558;28;20287;-77
2022/09/25 14:16:21;;;;;;;;;;;;;;;;;;5086239;28;19927;-77
2022/09/25 14:19:07;;;;;;;;;;;;;;;;;;5081093;28;19919;-77
2022/09/25 14:21:54;;;;;;;;;;;;;;;;;;5087897;28;19916;-76
2022/09/25 14:24:41;;;;;;;;;;;;;;;;;;5079729;28;20272;-74
2022/09/25 14:27:28;;;;;;;;;;;;;;;;;;5083314;28;20376;-75
2022/09/25 14:30:15;;;;;;;;;;;;;;;;;;5066451;28;19920;-76
2022/09/25 14:33:02;;;;;;;;;;;;;;;;;;5091167;28;19917;-75
2022/09/25 14:35:50;;;;;;;;;;;;;;;;;;5087341;28;20442;-76
2022/09/25 14:38:36;;;;;;;;;;;;;;;;;;5091852;28;20232;-75
2022/09/25 14:41:23;;;;;;;;;;;;;;;;;;5094429;28;19924;-75
2022/09/25 14:44:09;;;;;;;;;;;;;;;;;;5085006;28;20364;-76
2022/09/25 14:46:56;;;;;;;;;;;;;;;;;;5080806;28;19918;-75
2022/09/25 14:49:42;;;;;;;;;;;;;;;;;;5096717;28;19914;-77
2022/09/25 14:52:30;;;;;;;;;;;;;;;;;;5081735;28;20005;-75
2022/09/25 14:55:19;;;;;;;;;;;;;;;;;;5079647;28;19921;-78
2022/09/25 14:58:08;;;;;;;;;;;;;;;;;;5082755;28;19916;-79
2022/09/25 15:00:54;;;;;;;;;;;;;;;;;;5080757;28;19999;-75
2022/09/25 15:03:40;;;;;;;;;;;;;;;;;;5087209;28;20383;-77
2022/09/25 15:06:27;;;;;;;;;;;;;;;;;;5079944;28;19912;-81
2022/09/25 15:09:14;;;;;;;;;;;;;;;;;;5090430;28;19942;-83
2022/09/25 15:12:00;;;;;;;;;;;;;;;;;;5084296;28;19987;-79
2022/09/25 15:14:47;;;;;;;;;;;;;;;;;;5079560;28;19912;-79
2022/09/25 15:17:33;;;;;;;;;;;;;;;;;;5088655;28;19918;-78
2022/09/25 15:20:20;;;;;;;;;;;;;;;;;;5084665;28;19918;-80
2022/09/25 15:23:06;;;;;;;;;;;;;;;;;;5081239;28;19912;-81
2022/09/25 15:25:53;;;;;;;;;;;;;;;;;;5083868;28;20315;-79
2022/09/25 15:28:39;;;;;;;;;;;;;;;;;;5080261;28;19935;-80
2022/09/25 15:31:26;;;;;;;;;;;;;;;;;;5073379;28;19920;-83
2022/09/25 15:34:13;;;;;;;;;;;;;;;;;;5079000;28;19931;-84
2022/09/25 15:36:59;;;;;;;;;;;;;;;;;;5083981;28;19936;-79
2022/09/25 15:39:46;;;;;;;;;;;;;;;;;;5079420;28;19912;-79
2022/09/25 15:42:32;;;;;;;;;;;;;;;;;;5075406;28;19908;-79
2022/09/25 15:45:19;;;;;;;;;;;;;;;;;;5081148;28;19934;-79
2022/09/25 15:48:05;;;;;;;;;;;;;;;;;;5068044;28;19925;-80
2022/09/25 15:50:52;;;;;;;;;;;;;;;;;;5077163;28;20276;-80
2022/09/25 15:53:42;;;;;;;;;;;;;;;;;;5097843;28;20690;-80
2022/09/25 15:56:29;;;;;;;;;;;;;;;;;;5082608;28;19918;-80
2022/09/25 15:59:15;;;;;;;;;;;;;;;;;;5079224;28;20015;-80
2022/09/25 16:05:07;;;;;;;;;;;;;;;;;;5081132;28;19912;-79
2022/09/25 16:07:54;;;;;;;;;;;;;;;;;;5072733;28;19949;-80
2022/09/25 16:10:41;;;;;;;;;;;;;;;;;;5076797;28;19919;-80
2022/09/25 16:13:28;;;;;;;;;;;;;;;;;;5083652;28;19931;-79
2022/09/25 16:16:14;;;;;;;;;;;;;;;;;;5081678;28;19916;-78
2022/09/25 16:19:01;;;;;;;;;;;;;;;;;;5086665;28;20295;-79
2022/09/25 16:21:47;;;;;;;;;;;;;;;;;;5083045;28;19916;-79
2022/09/25 16:24:33;;;;;;;;;;;;;;;;;;5082766;28;20402;-79
2022/09/25 16:27:20;;;;;;;;;;;;;;;;;;5086619;28;19926;-79
2022/09/25 16:30:07;;;;;;;;;;;;;;;;;;5085602;28;19920;-79
2022/09/25 16:32:53;;;;;;;;;;;;;;;;;;5080681;28;19909;-79
2022/09/25 16:35:40;;;;;;;;;;;;;;;;;;5080581;28;19912;-78
2022/09/25 16:38:27;;;;;;;;;;;;;;;;;;5087067;28;19908;-79
2022/09/25 16:41:13;;;;;;;;;;;;;;;;;;5080692;28;19908;-80
2022/09/25 16:43:59;;;;;;;;;;;;;;;;;;5083031;28;20329;-79
2022/09/25 16:46:46;;;;;;;;;;;;;;;;;;5079370;28;19912;-79
2022/09/25 16:49:33;;;;;;;;;;;;;;;;;;5077848;28;20430;-83
2022/09/25 16:52:19;;;;;;;;;;;;;;;;;;5080130;28;19916;-79
2022/09/25 16:55:09;;;;;;;;;;;;;;;;;;5081207;28;20380;-79
2022/09/25 16:57:55;;;;;;;;;;;;;;;;;;5081864;28;19923;-80
2022/09/25 17:00:42;;;;;;;;;;;;;;;;;;5078711;28;19912;-79
2022/09/25 17:03:48;;;;;;;;;;;;;;;;;;5080888;28;19912;-77
2022/09/25 17:06:39;;;;;;;;;;;;;;;;;;5080685;28;19922;-79
2022/09/25 17:09:27;;;;;;;;;;;;;;;;;;5079597;28;20419;-79
2022/09/25 17:12:13;;;;;;;;;;;;;;;;;;5076317;28;19919;-79
2022/09/25 17:15:00;;;;;;;;;;;;;;;;;;5082133;28;19923;-79
2022/09/25 17:17:47;;;;;;;;;;;;;;;;;;5088711;28;20378;-79
2022/09/25 17:20:34;;;;;;;;;;;;;;;;;;5084547;28;19920;-73
2022/09/25 17:23:20;;;;;;;;;;;;;;;;;;5090828;28;19927;-74
2022/09/25 17:26:07;;;;;;;;;;;;;;;;;;5090628;28;19916;-75
2022/09/25 17:28:53;;;;;;;;;;;;;;;;;;5079174;28;20240;-75
2022/09/25 17:31:40;;;;;;;;;;;;;;;;;;5076694;28;19915;-74
2022/09/25 17:34:28;;;;;;;;;;;;;;;;;;5088541;28;20398;-74
2022/09/25 17:37:14;;;;;;;;;;;;;;;;;;5093193;28;19919;-74
2022/09/25 17:40:01;;;;;;;;;;;;;;;;;;5068031;28;19919;-72
2022/09/25 17:42:47;;;;;;;;;;;;;;;;;;5075191;28;19908;-73
2022/09/25 17:45:34;;;;;;;;;;;;;;;;;;5076108;28;19920;-73
2022/09/25 17:48:23;;;;;;;;;;;;;;;;;;5073261;28;19931;-73
2022/09/25 17:51:09;;;;;;;;;;;;;;;;;;5088117;28;20248;-75
2022/09/25 17:53:55;;;;;;;;;;;;;;;;;;5085580;28;19924;-73
2022/09/25 17:56:45;;;;;;;;;;;;;;;;;;5081042;28;20283;-74
2022/09/25 17:59:32;;;;;;;;;;;;;;;;;;5079815;28;19930;-76
2022/09/25 18:02:18;;;;;;;;;;;;;;;;;;5073424;28;19913;-78
2022/09/25 18:05:05;;;;;;;;;;;;;;;;;;5077263;28;19940;-79
2022/09/25 18:07:51;;;;;;;;;;;;;;;;;;5077155;28;20387;-77
2022/09/25 18:10:38;;;;;;;;;;;;;;;;;;5079966;28;19973;-78
2022/09/25 18:13:24;;;;;;;;;;;;;;;;;;5080808;28;19926;-77
2022/09/25 18:16:15;;;;;;;;;;;;;;;;;;5083960;28;19916;-77
2022/09/25 18:22:16;;;;;;;;;;;;;;;;;;5093086;28;19908;-78
2022/09/25 18:25:03;;;;;;;;;;;;;;;;;;5088667;28;19980;-76
2022/09/25 18:27:49;;;;;;;;;;;;;;;;;;5075744;28;19924;-78
2022/09/25 18:30:37;;;;;;;;;;;;;;;;;;5081429;28;20018;-78
2022/09/25 18:33:24;;;;;;;;;;;;;;;;;;5075171;28;20375;-81
2022/09/25 18:36:10;;;;;;;;;;;;;;;;;;5071116;28;19912;-77
2022/09/25 18:38:56;;;;;;;;;;;;;;;;;;5075193;28;19919;-77
2022/09/25 18:41:43;;;;;;;;;;;;;;;;;;5077090;28;19932;-76
2022/09/25 18:44:33;;;;;;;;;;;;;;;;;;5082506;28;19916;-76
2022/09/25 18:47:19;;;;;;;;;;;;;;;;;;5088442;28;19916;-76
2022/09/25 18:50:06;;;;;;;;;;;;;;;;;;5071580;28;20312;-79
2022/09/25 18:52:52;;;;;;;;;;;;;;;;;;5075012;28;19913;-80
2022/09/25 18:55:41;;;;;;;;;;;;;;;;;;5079131;28;19918;-79
2022/09/25 18:58:27;;;;;;;;;;;;;;;;;;5080784;28;19928;-76
2022/09/25 19:01:14;;;;;;;;;;;;;;;;;;5074920;28;19920;-77
2022/09/25 19:04:00;;;;;;;;;;;;;;;;;;5079411;28;19919;-79
2022/09/25 19:06:47;;;;;;;;;;;;;;;;;;5080697;28;20538;-77
2022/09/25 19:09:33;;;;;;;;;;;;;;;;;;5078258;28;19924;-78
2022/09/25 19:12:20;;;;;;;;;;;;;;;;;;5080914;28;19911;-80
2022/09/25 19:15:06;;;;;;;;;;;;;;;;;;5081229;28;20018;-78
2022/09/25 19:17:54;;;;;;;;;;;;;;;;;;5070864;28;19912;-79
2022/09/25 19:20:41;;;;;;;;;;;;;;;;;;5082522;28;19923;-79
2022/09/25 19:23:27;;;;;;;;;;;;;;;;;;5083177;28;20505;-79
2022/09/25 19:26:14;;;;;;;;;;;;;;;;;;5096521;28;19926;-80
2022/09/25 19:29:00;;;;;;;;;;;;;;;;;;5082566;28;19927;-76
2022/09/25 19:31:47;;;;;;;;;;;;;;;;;;5081373;28;19931;-78
2022/09/25 19:34:34;;;;;;;;;;;;;;;;;;5084538;28;20380;-77